createdAt,value
2022-10-05T00:02:29.801Z,15.79
2022-10-05T00:05:42.457Z,15.80
2022-10-05T00:08:51.811Z,15.82
2022-10-05T00:11:18.907Z,15.82
2022-10-05T00:13:47.155Z,15.83
2022-10-05T00:16:59.846Z,15.82
2022-10-05T00:23:23.113Z,15.77
2022-10-05T00:25:51.242Z,15.71
2022-10-05T00:28:30.553Z,15.67
2022-10-05T00:31:57.822Z,15.64
2022-10-05T00:34:24.979Z,15.61
2022-10-05T00:36:51.685Z,15.57
2022-10-05T00:39:18.816Z,15.54
2022-10-05T00:42:04.991Z,15.52
2022-10-05T00:45:09.376Z,15.49
2022-10-05T00:47:57.653Z,15.43
2022-10-05T00:50:41.957Z,15.40
2022-10-05T00:54:06.559Z,15.37
2022-10-05T00:57:06.757Z,15.36
2022-10-05T01:00:13.240Z,15.33
2022-10-05T01:03:05.620Z,15.32
2022-10-05T01:05:52.284Z,15.32
2022-10-05T01:08:27.382Z,15.32
2022-10-05T01:11:16.483Z,15.31
2022-10-05T01:14:07.819Z,15.30
2022-10-05T01:16:47.110Z,15.30
2022-10-05T01:19:32.396Z,15.29
2022-10-05T01:22:47.747Z,15.28
2022-10-05T01:26:00.035Z,15.27
2022-10-05T01:28:32.399Z,15.26
2022-10-05T01:35:30.807Z,15.17
2022-10-05T01:38:23.128Z,14.83
2022-10-05T01:40:59.432Z,14.49
2022-10-05T01:43:46.339Z,14.16
2022-10-05T01:46:21.924Z,14.00
2022-10-05T01:48:51.565Z,13.89
2022-10-05T01:51:41.037Z,13.83
2022-10-05T01:54:29.744Z,13.78
2022-10-05T01:57:17.549Z,13.79
2022-10-05T02:00:01.804Z,13.80
2022-10-05T02:02:31.415Z,13.78
2022-10-05T02:05:13.293Z,13.78
2022-10-05T02:07:51.279Z,13.79
2022-10-05T02:10:30.313Z,13.81
2022-10-05T02:13:18.953Z,13.81
2022-10-05T02:15:53.278Z,13.83
2022-10-05T02:18:23.354Z,13.84
2022-10-05T02:20:52.964Z,13.85
2022-10-05T02:23:24.368Z,13.87
2022-10-05T02:25:52.992Z,13.89
2022-10-05T02:28:25.497Z,13.92
2022-10-05T02:30:59.070Z,13.90
2022-10-05T02:33:31.722Z,13.88
2022-10-05T02:37:10.547Z,13.87
2022-10-05T02:44:03.597Z,13.84
2022-10-05T02:47:25.528Z,13.82
2022-10-05T02:50:41.173Z,13.81
2022-10-05T02:53:29.161Z,13.77
2022-10-05T02:55:56.039Z,13.77
2022-10-05T02:58:29.210Z,13.77
2022-10-05T03:01:10.611Z,13.73
2022-10-05T03:03:48.046Z,13.70
2022-10-05T03:06:24.003Z,13.66
2022-10-05T03:09:02.993Z,13.65
2022-10-05T03:12:59.899Z,13.64
2022-10-05T03:16:01.811Z,13.63
2022-10-05T03:19:06.255Z,13.60
2022-10-05T03:22:31.687Z,13.58
2022-10-05T03:25:39.983Z,13.55
2022-10-05T03:29:04.666Z,13.47
2022-10-05T03:32:00.385Z,13.26
2022-10-05T03:35:07.211Z,13.10
2022-10-05T03:37:47.958Z,13.02
2022-10-05T03:40:29.622Z,12.97
2022-10-05T03:43:41.276Z,12.91
2022-10-05T03:46:35.406Z,12.87
2022-10-05T03:49:15.100Z,12.85
2022-10-05T03:52:41.549Z,12.85
2022-10-05T03:56:05.362Z,12.81
2022-10-05T03:59:10.358Z,12.73
2022-10-05T04:05:47.413Z,12.59
2022-10-05T04:08:14.024Z,12.56
2022-10-05T04:10:45.522Z,12.53
2022-10-05T04:13:34.422Z,12.49
2022-10-05T04:16:13.362Z,12.45
2022-10-05T04:18:44.082Z,12.38
2022-10-05T04:21:23.952Z,12.36
2022-10-05T04:24:53.742Z,12.30
2022-10-05T04:28:20.233Z,12.28
2022-10-05T04:35:39.629Z,12.28
2022-10-05T04:38:51.985Z,12.29
2022-10-05T04:42:01.625Z,12.26
2022-10-05T04:45:04.685Z,12.25
2022-10-05T04:47:53.192Z,12.22
2022-10-05T04:50:52.903Z,12.19
2022-10-05T04:53:28.149Z,12.16
2022-10-05T04:56:14.467Z,12.14
2022-10-05T04:58:53.135Z,12.10
2022-10-05T05:02:20.660Z,12.11
2022-10-05T05:09:01.191Z,12.09
2022-10-05T05:12:29.372Z,12.07
2022-10-05T05:16:11.063Z,12.06
2022-10-05T05:19:16.071Z,12.02
2022-10-05T05:22:08.916Z,12.00
2022-10-05T05:25:28.865Z,11.98
2022-10-05T05:29:10.372Z,11.99
2022-10-05T05:32:31.878Z,11.95
2022-10-05T05:35:24.412Z,11.92
2022-10-05T05:39:08.278Z,11.88
2022-10-05T05:42:18.013Z,11.84
2022-10-05T05:44:56.343Z,11.81
2022-10-05T05:47:35.517Z,11.78
2022-10-05T05:50:07.268Z,11.79
2022-10-05T05:52:46.461Z,11.79
2022-10-05T05:55:30.124Z,11.78
2022-10-05T05:58:26.455Z,11.79
2022-10-05T06:01:01.362Z,11.78
2022-10-05T06:04:30.643Z,11.78
2022-10-05T06:07:01.220Z,11.80
2022-10-05T06:09:35.990Z,11.79
2022-10-05T06:12:19.260Z,11.79
2022-10-05T06:15:04.995Z,11.76
2022-10-05T06:17:45.563Z,11.79
2022-10-05T06:20:55.396Z,11.76
2022-10-05T06:24:20.827Z,11.76
2022-10-05T06:27:26.178Z,11.79
2022-10-05T06:31:04.920Z,11.75
2022-10-05T06:34:52.414Z,11.74
2022-10-05T06:41:16.576Z,11.74
2022-10-05T06:44:14.377Z,11.76
2022-10-05T06:47:41.001Z,11.77
2022-10-05T06:51:07.440Z,11.76
2022-10-05T06:54:01.210Z,11.80
2022-10-05T06:57:13.455Z,11.81
2022-10-05T07:00:25.990Z,11.81
2022-10-05T07:03:59.782Z,11.82
2022-10-05T07:06:29.886Z,11.82
2022-10-05T07:09:02.256Z,11.80
2022-10-05T07:11:57.259Z,11.81
2022-10-05T07:15:03.225Z,11.80
2022-10-05T07:17:48.799Z,11.79
2022-10-05T07:20:22.646Z,11.78
2022-10-05T07:23:20.045Z,11.76
2022-10-05T07:25:55.640Z,11.76
2022-10-05T07:28:33.639Z,11.75
2022-10-05T07:31:25.105Z,11.76
2022-10-05T07:34:21.067Z,11.76
2022-10-05T07:37:20.096Z,11.76
2022-10-05T07:40:28.551Z,11.78
2022-10-05T07:42:58.022Z,11.79
2022-10-05T07:45:57.514Z,11.82
2022-10-05T07:48:53.645Z,11.82
2022-10-05T07:51:23.244Z,11.86
2022-10-05T07:54:06.442Z,11.87
2022-10-05T07:56:44.256Z,11.87
2022-10-05T07:59:19.407Z,11.89
2022-10-05T08:01:53.027Z,11.91
2022-10-05T08:04:26.579Z,11.92
2022-10-05T08:07:06.943Z,11.94
2022-10-05T08:09:51.390Z,11.95
2022-10-05T08:12:29.233Z,11.96
2022-10-05T08:15:16.688Z,11.99
2022-10-05T08:17:55.128Z,11.99
2022-10-05T08:20:40.622Z,11.99
2022-10-05T08:23:24.063Z,12.00
2022-10-05T08:26:02.762Z,12.00
2022-10-05T08:28:47.402Z,12.00
2022-10-05T08:31:23.122Z,12.01
2022-10-05T08:34:21.351Z,12.02
2022-10-05T08:37:15.951Z,12.03
2022-10-05T08:39:55.825Z,12.03
2022-10-05T08:42:56.286Z,12.03
2022-10-05T08:45:42.262Z,12.04
2022-10-05T08:48:31.127Z,12.05
2022-10-05T08:51:13.491Z,12.06
2022-10-05T08:53:58.320Z,12.06
2022-10-05T08:56:49.922Z,12.08
2022-10-05T08:59:25.502Z,12.09
2022-10-05T09:02:18.710Z,12.13
2022-10-05T09:04:52.075Z,12.14
2022-10-05T09:07:43.784Z,12.15
2022-10-05T09:10:28.795Z,12.18
2022-10-05T09:13:17.523Z,12.23
2022-10-05T09:16:08.880Z,12.26
2022-10-05T09:18:44.882Z,12.26
2022-10-05T09:22:02.575Z,12.29
2022-10-05T09:24:57.456Z,12.31
2022-10-05T09:27:34.309Z,12.39
2022-10-05T09:30:06.651Z,12.41
2022-10-05T09:33:01.025Z,12.40
2022-10-05T09:36:05.302Z,12.46
2022-10-05T09:38:53.201Z,12.53
2022-10-05T09:42:02.280Z,12.57
2022-10-05T09:45:07.579Z,12.58
2022-10-05T09:48:05.000Z,12.60
2022-10-05T09:50:44.456Z,12.58
2022-10-05T09:53:29.709Z,12.63
2022-10-05T09:56:22.742Z,12.63
2022-10-05T09:59:08.229Z,12.67
2022-10-05T10:01:48.091Z,12.85
2022-10-05T10:04:34.118Z,13.38
2022-10-05T10:07:39.382Z,13.73
2022-10-05T10:10:29.710Z,13.94
2022-10-05T10:13:17.145Z,13.73
2022-10-05T10:16:02.512Z,13.76
2022-10-05T10:18:41.396Z,13.65
2022-10-05T10:21:33.300Z,14.03
2022-10-05T10:24:14.150Z,14.17
2022-10-05T10:27:18.392Z,14.32
2022-10-05T10:30:06.848Z,14.43
2022-10-05T10:33:11.960Z,14.68
2022-10-05T10:35:42.776Z,14.73
2022-10-05T10:38:28.812Z,14.79
2022-10-05T10:41:01.636Z,14.86
2022-10-05T10:43:57.262Z,15.11
2022-10-05T10:47:21.282Z,15.27
2022-10-05T10:50:47.078Z,15.16
2022-10-05T10:54:11.646Z,14.99
2022-10-05T10:57:27.233Z,15.01
2022-10-05T11:00:37.027Z,14.85
2022-10-05T11:08:00.861Z,15.38
2022-10-05T11:11:05.592Z,16.27
2022-10-05T11:14:29.920Z,16.25
2022-10-05T11:17:55.082Z,17.01
2022-10-05T11:21:16.838Z,17.47
2022-10-05T11:24:32.020Z,18.00
2022-10-05T11:27:41.197Z,18.30
2022-10-05T11:30:53.837Z,17.41
2022-10-05T11:34:54.132Z,16.68
2022-10-05T11:37:43.830Z,16.22
2022-10-05T11:40:33.232Z,16.06
2022-10-05T11:43:44.354Z,16.23
2022-10-05T11:46:50.953Z,15.86
2022-10-05T11:50:19.332Z,15.66
2022-10-05T11:54:09.802Z,15.26
2022-10-05T11:57:39.216Z,15.14
2022-10-05T12:01:11.830Z,14.90
2022-10-05T12:27:25.689Z,16.43
2022-10-05T12:30:12.564Z,16.98
2022-10-05T12:33:02.160Z,16.54
2022-10-05T12:35:54.682Z,16.01
2022-10-05T12:39:39.707Z,15.68
2022-10-05T12:42:31.986Z,15.46
2022-10-05T12:45:49.422Z,17.62
2022-10-05T12:48:25.144Z,16.76
2022-10-05T12:55:03.648Z,15.28
2022-10-05T12:58:21.977Z,15.17
2022-10-05T13:02:18.895Z,14.53
2022-10-05T13:05:11.210Z,13.67
2022-10-05T13:07:46.993Z,13.06
2022-10-05T13:10:28.190Z,12.54
2022-10-05T13:13:19.627Z,12.19
2022-10-05T13:16:37.754Z,12.03
2022-10-05T13:20:16.461Z,12.13
2022-10-05T13:22:51.048Z,12.26
2022-10-05T13:25:29.056Z,12.29
2022-10-05T13:28:01.633Z,12.25
2022-10-05T13:30:28.908Z,12.19
2022-10-05T13:33:07.175Z,11.88
2022-10-05T13:35:48.581Z,11.60
2022-10-05T13:38:35.022Z,11.28
2022-10-05T13:41:18.331Z,11.15
2022-10-05T13:44:05.938Z,14.60
2022-10-05T13:46:49.148Z,18.19
2022-10-05T13:50:22.157Z,21.23
2022-10-05T13:53:46.506Z,23.87
2022-10-05T13:57:15.769Z,26.18
2022-10-05T14:00:42.212Z,27.02
2022-10-05T14:08:10.712Z,28.17
2022-10-05T14:11:40.038Z,28.32
2022-10-05T14:14:29.720Z,28.23
2022-10-05T14:20:56.985Z,28.33
2022-10-05T14:23:27.269Z,27.36
2022-10-05T14:25:54.518Z,25.96
2022-10-05T14:28:30.947Z,26.16
2022-10-05T14:31:15.102Z,25.93
2022-10-05T14:33:42.544Z,25.66
2022-10-05T14:37:14.872Z,22.29
2022-10-05T14:40:41.639Z,19.83
2022-10-05T14:43:34.535Z,18.24
2022-10-05T14:46:28.596Z,18.87
2022-10-05T14:49:21.673Z,20.70
2022-10-05T14:51:50.482Z,23.62
2022-10-05T14:54:34.030Z,25.36
2022-10-05T14:57:45.773Z,21.86
2022-10-05T15:00:17.747Z,22.20
2022-10-05T15:02:51.712Z,24.53
2022-10-05T15:05:43.745Z,26.65
2022-10-05T15:08:34.263Z,27.49
2022-10-05T15:11:07.702Z,26.79
2022-10-05T15:13:41.784Z,26.68
2022-10-05T15:17:14.390Z,24.61
2022-10-05T15:20:10.805Z,25.31
2022-10-05T15:23:46.062Z,25.66
2022-10-05T15:26:32.826Z,23.45
2022-10-05T15:29:57.855Z,21.09
2022-10-05T15:33:25.991Z,23.64
2022-10-05T15:36:17.366Z,25.34
2022-10-05T15:39:33.742Z,25.23
2022-10-05T15:42:26.760Z,23.24
2022-10-05T15:45:25.532Z,20.56
2022-10-05T15:48:56.494Z,18.50
2022-10-05T15:52:05.877Z,17.14
2022-10-05T15:55:51.049Z,16.40
2022-10-05T15:58:53.127Z,15.67
2022-10-05T16:05:59.325Z,14.89
2022-10-05T16:09:20.867Z,14.62
2022-10-05T16:12:10.741Z,14.38
2022-10-05T16:15:35.189Z,14.30
2022-10-05T16:18:43.709Z,14.18
2022-10-05T16:21:29.671Z,14.14
2022-10-05T16:28:29.110Z,13.83
2022-10-05T16:31:24.886Z,13.77
2022-10-05T16:34:31.528Z,13.61
2022-10-05T16:37:36.310Z,13.56
2022-10-05T16:40:49.022Z,13.48
2022-10-05T16:43:59.920Z,13.30
2022-10-05T16:47:12.753Z,13.20
2022-10-05T16:50:19.242Z,13.05
2022-10-05T16:59:10.442Z,12.85
2022-10-05T17:01:43.815Z,12.87
2022-10-05T17:04:45.882Z,12.89
2022-10-05T17:07:55.518Z,12.82
2022-10-05T17:11:40.140Z,12.81
2022-10-05T17:14:45.463Z,13.01
2022-10-05T17:18:00.087Z,13.00
2022-10-05T17:20:56.982Z,12.82
2022-10-05T17:24:25.164Z,12.62
2022-10-05T17:26:57.384Z,12.45
2022-10-05T17:30:12.912Z,12.31
2022-10-05T17:33:42.481Z,12.12
2022-10-05T17:36:29.210Z,12.02
2022-10-05T17:39:14.785Z,11.92
2022-10-05T17:45:29.929Z,11.85
2022-10-05T17:47:56.557Z,11.80
2022-10-05T17:50:58.786Z,11.75
2022-10-05T17:53:57.125Z,11.72
2022-10-05T17:56:24.016Z,11.66
2022-10-05T17:59:10.630Z,11.57
2022-10-05T18:02:49.086Z,11.50
2022-10-05T18:09:37.903Z,11.39
2022-10-05T18:12:41.252Z,11.34
2022-10-05T18:15:07.927Z,11.27
2022-10-05T18:18:00.132Z,11.22
2022-10-05T18:20:27.151Z,11.18
2022-10-05T18:23:39.496Z,11.16
2022-10-05T18:30:46.904Z,11.06
2022-10-05T18:33:33.125Z,11.04
2022-10-05T18:36:19.922Z,10.98
2022-10-05T18:39:07.915Z,10.96
2022-10-05T18:42:32.417Z,10.92
2022-10-05T18:46:04.537Z,10.89
2022-10-05T18:49:11.374Z,10.87
2022-10-05T18:52:16.255Z,10.85
2022-10-05T18:55:24.986Z,10.82
2022-10-05T18:58:57.372Z,10.77
2022-10-05T19:05:48.336Z,10.71
2022-10-05T19:08:57.523Z,10.67
2022-10-05T19:12:02.468Z,10.63
2022-10-05T19:14:51.529Z,10.59
2022-10-05T19:17:40.378Z,10.54
2022-10-05T19:20:47.064Z,10.54
2022-10-05T19:23:48.778Z,10.51
2022-10-05T19:30:20.142Z,10.47
2022-10-05T19:33:01.342Z,10.46
2022-10-05T19:35:45.662Z,10.46
2022-10-05T19:38:36.661Z,10.46
2022-10-05T19:41:45.007Z,10.44
2022-10-05T19:44:30.533Z,10.43
2022-10-05T19:47:45.838Z,10.41
2022-10-05T19:51:18.368Z,10.39
2022-10-05T19:53:47.429Z,10.36
2022-10-05T19:56:23.526Z,10.34
2022-10-05T19:59:53.063Z,10.32
2022-10-05T20:02:26.350Z,10.30
2022-10-05T20:04:55.187Z,10.27
2022-10-05T20:07:22.995Z,10.26
2022-10-05T20:09:57.132Z,10.25
2022-10-05T20:13:13.345Z,10.23
2022-10-05T20:16:47.922Z,10.21
2022-10-05T20:19:52.487Z,10.21
2022-10-05T20:27:28.235Z,10.17
2022-10-05T20:30:54.748Z,10.15
2022-10-05T20:37:05.823Z,10.11
2022-10-05T20:39:32.683Z,10.09
2022-10-05T20:41:59.664Z,10.11
2022-10-05T20:44:27.544Z,10.12
2022-10-05T20:46:58.294Z,10.14
2022-10-05T20:49:26.529Z,10.14
2022-10-05T20:51:56.062Z,10.14
2022-10-05T20:54:24.242Z,10.15
2022-10-05T20:56:53.275Z,10.16
2022-10-05T20:59:20.182Z,10.16
2022-10-05T21:02:46.665Z,10.14
2022-10-05T21:05:57.995Z,10.16
2022-10-05T21:12:07.446Z,10.12
2022-10-05T21:14:54.326Z,10.11
2022-10-05T21:18:20.969Z,10.11
2022-10-05T21:21:48.887Z,10.09
2022-10-05T21:25:15.567Z,10.08
2022-10-05T21:27:42.191Z,10.07
2022-10-05T21:30:09.922Z,10.05
2022-10-05T21:33:36.733Z,10.05
2022-10-05T21:37:03.337Z,10.08
2022-10-05T21:39:30.342Z,10.09
2022-10-05T21:45:56.209Z,10.08
2022-10-05T21:48:23.578Z,10.10
2022-10-05T21:50:50.283Z,10.12
2022-10-05T21:54:06.943Z,10.14
2022-10-05T21:56:36.431Z,10.16
2022-10-05T21:59:06.505Z,10.16
2022-10-05T22:01:36.090Z,10.17
2022-10-05T22:05:01.768Z,10.18
2022-10-05T22:07:29.193Z,10.20
2022-10-05T22:10:55.665Z,10.19
2022-10-05T22:14:24.890Z,10.24
2022-10-05T22:16:52.970Z,10.24
2022-10-05T22:20:19.593Z,10.22
2022-10-05T22:23:46.100Z,10.22
2022-10-05T22:27:12.672Z,10.19
2022-10-05T22:34:31.607Z,10.18
2022-10-05T22:37:58.131Z,10.22
2022-10-05T22:45:07.699Z,10.30
2022-10-05T22:48:34.129Z,10.28
2022-10-05T22:52:00.827Z,10.30
2022-10-05T22:55:27.239Z,10.31
2022-10-05T22:57:57.990Z,10.26
2022-10-05T23:05:19.265Z,10.22
2022-10-05T23:08:45.708Z,10.23
2022-10-05T23:12:12.382Z,10.23
2022-10-05T23:15:38.837Z,10.23
2022-10-05T23:22:58.810Z,10.30
2022-10-05T23:26:25.324Z,10.32
2022-10-05T23:32:47.221Z,10.27
2022-10-05T23:36:13.751Z,10.24
2022-10-05T23:39:40.543Z,10.21
2022-10-05T23:42:31.079Z,10.15
2022-10-05T23:49:18.634Z,10.05
2022-10-05T23:55:54.629Z,10.02
2022-10-05T23:58:22.671Z,9.99
